Time;durP1;ratioP1;P1;durP2;ratioP2;P2;SDS_P1;SDS_P2;PMS_P1;PMS_P2;Temp;Humidity;BMP_temperature;BMP_pressure;BME280_temperature;BME280_humidity;BME280_pressure;Samples;Min_cycle;Max_cycle;Signal;HPM_P1;HPM_P2
2022/05/24 00:01:04;;;;;;;7.32;1.67;;;13.70;99.90;;;;;;4994737;28;20448;-71
2022/05/24 00:03:31;;;;;;;9.10;1.58;;;13.80;99.90;;;;;;4994426;28;20029;-71
2022/05/24 00:05:59;;;;;;;5.82;1.02;;;13.80;99.90;;;;;;4994456;28;20104;-71
2022/05/24 00:08:27;;;;;;;3.28;1.17;;;13.80;99.90;;;;;;4994429;28;20100;-76
2022/05/24 00:10:55;;;;;;;3.10;1.00;;;13.80;99.90;;;;;;4994155;28;20084;-71
2022/05/24 00:13:23;;;;;;;2.33;0.80;;;13.90;99.90;;;;;;4994314;28;20088;-77
2022/05/24 00:15:51;;;;;;;2.85;1.17;;;13.90;99.90;;;;;;4994451;28;20030;-71
2022/05/24 00:18:22;;;;;;;7.03;1.70;;;13.90;99.90;;;;;;4994177;28;20101;-72
2022/05/24 00:20:53;;;;;;;5.90;1.30;;;14.00;99.90;;;;;;4994273;28;20034;-72
2022/05/24 00:23:23;;;;;;;5.13;1.80;;;14.10;99.90;;;;;;4994070;28;20024;-72
2022/05/24 00:25:54;;;;;;;5.63;2.00;;;14.10;99.90;;;;;;4994039;28;20055;-72
2022/05/24 00:28:25;;;;;;;2.50;1.58;;;14.10;99.90;;;;;;4994084;28;20030;-72
2022/05/24 00:30:53;;;;;;;3.47;2.05;;;14.20;99.90;;;;;;4994105;28;20118;-72
2022/05/24 00:33:23;;;;;;;3.47;1.45;;;14.20;99.90;;;;;;4994029;28;20037;-72
2022/05/24 00:35:51;;;;;;;4.25;1.15;;;14.30;99.90;;;;;;4993736;28;20398;-72
2022/05/24 00:38:27;;;;;;;3.90;1.50;;;14.30;99.90;;;;;;4994153;28;20027;-72
2022/05/24 00:41:17;;;;;;;3.53;1.52;;;14.30;99.90;;;;;;4994109;28;20023;-71
2022/05/24 00:44:05;;;;;;;3.15;1.60;;;14.30;99.90;;;;;;4994250;28;20032;-71
2022/05/24 00:46:57;;;;;;;1.88;1.15;;;14.50;99.90;;;;;;4994368;28;20018;-72
2022/05/24 00:49:47;;;;;;;2.08;1.08;;;14.50;99.90;;;;;;4994103;28;20030;-72
2022/05/24 00:52:29;;;;;;;3.03;1.00;;;14.50;99.90;;;;;;4994100;28;20122;-72
2022/05/24 00:54:59;;;;;;;2.28;1.25;;;14.60;99.90;;;;;;4993808;28;20035;-72
2022/05/24 00:57:32;;;;;;;2.92;1.10;;;14.60;99.90;;;;;;4993709;28;20395;-72
2022/05/24 01:00:09;;;;;;;2.40;0.93;;;14.70;99.90;;;;;;4993913;28;20029;-72
2022/05/24 01:02:38;;;;;;;2.85;1.52;;;14.70;99.90;;;;;;4994050;28;20042;-72
2022/05/24 01:05:09;;;;;;;2.55;1.02;;;14.70;99.90;;;;;;4993943;28;20026;-72
2022/05/24 01:07:37;;;;;;;4.78;1.08;;;14.70;99.90;;;;;;4993935;28;20041;-72
2022/05/24 01:10:10;;;;;;;2.90;1.17;;;14.80;99.90;;;;;;4993630;28;20106;-77
2022/05/24 01:12:43;;;;;;;2.38;0.95;;;14.70;99.90;;;;;;4993741;28;20042;-72
2022/05/24 01:15:13;;;;;;;4.85;1.10;;;14.80;99.90;;;;;;4993781;28;20034;-72
2022/05/24 01:17:42;;;;;;;2.78;1.05;;;14.90;99.90;;;;;;4993972;28;20034;-73
2022/05/24 01:20:11;;;;;;;7.70;1.38;;;14.90;99.90;;;;;;4993842;28;20022;-77
2022/05/24 01:23:13;;;;;;;2.80;0.70;;;14.90;99.90;;;;;;4993466;28;20031;-72
2022/05/24 01:26:02;;;;;;;2.67;0.90;;;14.90;99.90;;;;;;4928249;28;20038;-72
2022/05/24 01:28:50;;;;;;;2.30;0.95;;;15.00;99.90;;;;;;4993523;28;20027;-72
2022/05/24 01:31:19;;;;;;;7.30;1.20;;;15.10;99.90;;;;;;4993576;28;20031;-72
2022/05/24 01:36:36;;;;;;;2.92;1.08;;;15.20;99.90;;;;;;4994160;28;20606;-72
2022/05/24 01:39:10;;;;;;;3.55;1.20;;;15.20;99.90;;;;;;4993969;28;20081;-72
2022/05/24 01:41:44;;;;;;;2.65;1.48;;;15.20;99.90;;;;;;4993785;28;20463;-72
2022/05/24 01:44:15;;;;;;;2.08;1.17;;;15.30;99.90;;;;;;4993334;28;20034;-72
2022/05/24 01:46:45;;;;;;;5.15;1.33;;;15.30;99.90;;;;;;4993570;28;20049;-72
2022/05/24 01:49:25;;;;;;;3.72;1.17;;;15.30;99.90;;;;;;4996451;28;20118;-71
2022/05/24 01:52:16;;;;;;;4.07;1.40;;;15.30;99.90;;;;;;4996869;28;20484;-72
2022/05/24 01:54:49;;;;;;;4.18;1.15;;;15.30;99.90;;;;;;4996915;28;20019;-72
2022/05/24 01:57:33;;;;;;;3.00;1.10;;;15.30;99.90;;;;;;4997077;28;20030;-72
2022/05/24 02:00:05;;;;;;;4.15;1.42;;;15.30;99.90;;;;;;4996879;28;20499;-72
2022/05/24 02:02:33;;;;;;;4.38;1.20;;;15.30;99.90;;;;;;4995542;28;20419;-72
2022/05/24 02:05:01;;;;;;;4.15;1.10;;;15.30;99.90;;;;;;4996519;28;20029;-72
2022/05/24 02:07:29;;;;;;;3.25;1.60;;;15.30;99.90;;;;;;4996752;28;20027;-73
2022/05/24 02:09:58;;;;;;;7.70;1.48;;;15.30;99.90;;;;;;4996598;28;20065;-72
2022/05/24 02:12:44;;;;;;;4.43;1.30;;;15.30;99.90;;;;;;4996780;28;20030;-78
2022/05/24 02:15:17;;;;;;;1.70;1.00;;;15.40;99.90;;;;;;4996383;28;20027;-72
2022/05/24 02:18:11;;;;;;;9.13;1.27;;;15.40;99.90;;;;;;4996431;28;20026;-72
2022/05/24 02:20:42;;;;;;;4.35;1.25;;;15.40;99.90;;;;;;4996549;28;20033;-72
2022/05/24 02:23:12;;;;;;;4.97;1.02;;;15.40;99.90;;;;;;4996326;28;20026;-72
2022/05/24 02:25:42;;;;;;;3.05;1.00;;;15.40;99.90;;;;;;4996376;28;20033;-72
2022/05/24 02:28:11;;;;;;;3.00;0.85;;;15.40;99.90;;;;;;4996464;28;20049;-72
2022/05/24 02:31:05;;;;;;;2.90;1.15;;;15.50;99.90;;;;;;4996357;28;20015;-72
2022/05/24 02:33:33;;;;;;;4.47;0.98;;;15.50;99.90;;;;;;4996102;28;20489;-72
2022/05/24 02:36:03;;;;;;;3.85;1.10;;;15.50;99.90;;;;;;4996115;28;20034;-72
2022/05/24 02:38:31;;;;;;;2.70;0.80;;;15.50;99.90;;;;;;4996134;28;20026;-72
2022/05/24 02:43:44;;;;;;;6.28;1.50;;;15.50;99.90;;;;;;4996262;28;20030;-78
2022/05/24 02:46:12;;;;;;;3.22;1.08;;;15.50;99.90;;;;;;4995828;28;20475;-72
2022/05/24 02:48:40;;;;;;;3.72;0.70;;;15.50;99.90;;;;;;4995843;28;20026;-73
2022/05/24 02:51:10;;;;;;;2.97;1.70;;;15.50;99.90;;;;;;4995439;28;20112;-72
2022/05/24 02:53:43;;;;;;;5.60;1.23;;;15.50;99.90;;;;;;4995940;28;20391;-72
2022/05/24 02:56:11;;;;;;;2.92;1.38;;;15.40;99.90;;;;;;4995628;28;20109;-72
2022/05/24 02:58:40;;;;;;;2.25;0.88;;;15.50;99.90;;;;;;4995502;28;20049;-74
2022/05/24 03:01:23;;;;;;;3.08;0.85;;;15.50;99.90;;;;;;4995679;28;20034;-72
2022/05/24 03:03:52;;;;;;;3.92;1.10;;;15.50;99.90;;;;;;4994297;28;20384;-72
2022/05/24 03:06:21;;;;;;;4.55;1.35;;;15.40;99.90;;;;;;4995349;28;20023;-78
2022/05/24 03:14:23;;;;;;;3.13;1.27;;;15.40;99.90;;;;;;4995779;28;20073;-72
2022/05/24 03:16:52;;;;;;;6.47;1.50;;;15.30;99.90;;;;;;4995369;28;20041;-72
2022/05/24 03:19:21;;;;;;;2.60;1.00;;;15.30;99.90;;;;;;4995085;28;20109;-72
2022/05/24 03:21:50;;;;;;;3.05;1.20;;;15.20;99.90;;;;;;4995227;28;20059;-72
2022/05/24 03:24:18;;;;;;;2.55;1.17;;;15.10;99.90;;;;;;4995090;28;20113;-72
2022/05/24 03:26:45;;;;;;;1.98;1.20;;;15.10;99.90;;;;;;4995400;28;20026;-72
2022/05/24 03:29:13;;;;;;;3.50;1.17;;;15.00;99.90;;;;;;4995164;28;20034;-75
2022/05/24 03:31:42;;;;;;;2.63;0.95;;;15.00;99.90;;;;;;4995012;28;20022;-72
2022/05/24 03:34:09;;;;;;;3.00;1.05;;;15.00;99.90;;;;;;4995021;28;20019;-71
2022/05/24 03:36:37;;;;;;;3.05;0.93;;;14.90;99.90;;;;;;4994830;28;20038;-71
2022/05/24 03:39:07;;;;;;;3.58;0.90;;;14.80;99.90;;;;;;4994838;28;20022;-72
2022/05/24 03:41:35;;;;;;;5.35;1.00;;;14.70;99.90;;;;;;4995074;28;20588;-72
2022/05/24 03:44:03;;;;;;;2.28;1.05;;;14.60;99.90;;;;;;4994687;28;20715;-71
2022/05/24 03:46:32;;;;;;;4.25;1.38;;;14.50;99.90;;;;;;4994743;28;20026;-71
2022/05/24 03:49:00;;;;;;;5.30;1.33;;;14.50;99.90;;;;;;4994857;28;20025;-71
2022/05/24 03:51:33;;;;;;;2.17;1.10;;;14.50;99.90;;;;;;4994509;28;20129;-71
2022/05/24 03:54:00;;;;;;;5.53;1.20;;;14.50;99.90;;;;;;4994521;28;20026;-72
2022/05/24 03:56:31;;;;;;;2.67;1.13;;;14.50;99.90;;;;;;4993739;28;20093;-71
2022/05/24 03:59:02;;;;;;;3.70;1.10;;;14.40;99.90;;;;;;4994564;28;20026;-71
2022/05/24 04:01:32;;;;;;;3.78;1.08;;;14.40;99.90;;;;;;4994677;28;20022;-71
2022/05/24 04:04:00;;;;;;;3.15;1.25;;;14.30;99.90;;;;;;4994348;28;20042;-71
2022/05/24 04:06:27;;;;;;;2.55;1.08;;;14.30;99.90;;;;;;4994668;28;20489;-71
2022/05/24 04:08:58;;;;;;;2.47;1.33;;;14.30;99.90;;;;;;4994533;28;20027;-71
2022/05/24 04:11:26;;;;;;;2.28;1.00;;;14.30;99.90;;;;;;4994096;28;20029;-79
2022/05/24 04:13:54;;;;;;;2.65;1.33;;;14.30;99.90;;;;;;4994433;28;20022;-71
2022/05/24 04:16:21;;;;;;;2.78;1.33;;;14.30;99.90;;;;;;4994451;28;20041;-71
2022/05/24 04:18:50;;;;;;;3.35;1.20;;;14.40;99.90;;;;;;4994387;28;20022;-72
2022/05/24 04:21:18;;;;;;;2.85;1.17;;;14.50;99.90;;;;;;4994298;28;20042;-71
2022/05/24 04:23:45;;;;;;;5.70;1.42;;;14.50;99.90;;;;;;4994069;28;20434;-71
2022/05/24 04:26:13;;;;;;;5.55;1.48;;;14.60;99.90;;;;;;4994207;28;20471;-71
2022/05/24 04:28:41;;;;;;;1.38;0.63;;;14.70;99.90;;;;;;4994314;28;20033;-71
2022/05/24 04:31:09;;;;;;;2.72;0.70;;;14.70;99.90;;;;;;4994250;28;20049;-71
2022/05/24 04:33:36;;;;;;;0.55;0.45;;;14.60;99.90;;;;;;4994248;28;20153;-71
2022/05/24 04:36:04;;;;;;;1.55;0.45;;;14.60;99.90;;;;;;4993883;28;20475;-78
2022/05/24 04:38:32;;;;;;;3.63;0.50;;;14.50;99.90;;;;;;4994104;28;20391;-77
2022/05/24 04:43:45;;;;;;;1.20;0.47;;;14.50;99.90;;;;;;4994500;28;20100;-71
2022/05/24 04:46:13;;;;;;;1.45;0.50;;;14.40;99.90;;;;;;4994094;28;20520;-71
2022/05/24 04:48:41;;;;;;;0.82;0.40;;;14.40;99.90;;;;;;4993857;28;20023;-71
2022/05/24 04:51:08;;;;;;;0.88;0.30;;;14.40;99.90;;;;;;4993684;28;20054;-71
2022/05/24 04:53:36;;;;;;;1.02;0.45;;;14.40;99.90;;;;;;4993941;28;20018;-71
2022/05/24 04:56:04;;;;;;;0.52;0.30;;;14.30;99.90;;;;;;4993998;28;20550;-77
2022/05/24 04:58:32;;;;;;;1.15;0.60;;;14.30;99.90;;;;;;4993801;28;20398;-71
2022/05/24 05:01:00;;;;;;;0.93;0.30;;;14.30;99.90;;;;;;4994130;28;20109;-71
2022/05/24 05:03:27;;;;;;;0.88;0.40;;;14.20;99.90;;;;;;4993732;28;20026;-71
2022/05/24 05:05:56;;;;;;;0.75;0.32;;;14.10;99.90;;;;;;4994018;28;20026;-71
2022/05/24 05:08:24;;;;;;;1.88;0.50;;;14.10;99.90;;;;;;4993865;28;20022;-72
2022/05/24 05:10:53;;;;;;;0.30;0.30;;;14.10;99.90;;;;;;4993573;28;20110;-77
2022/05/24 05:13:20;;;;;;;1.08;0.52;;;14.00;99.90;;;;;;4993824;28;20062;-71
2022/05/24 05:15:48;;;;;;;2.65;0.45;;;13.90;99.90;;;;;;4993585;28;20485;-71
2022/05/24 05:18:18;;;;;;;0.63;0.30;;;13.90;99.90;;;;;;4993934;28;20061;-71
2022/05/24 05:20:46;;;;;;;3.38;0.38;;;13.90;99.90;;;;;;4993664;28;20053;-71
2022/05/24 05:23:16;;;;;;;0.70;0.30;;;13.90;99.90;;;;;;4995216;28;20045;-72
2022/05/24 05:25:49;;;;;;;0.45;0.20;;;13.80;99.90;;;;;;4997592;28;20049;-71
2022/05/24 05:28:21;;;;;;;0.75;0.30;;;13.80;99.90;;;;;;4997395;28;20061;-72
2022/05/24 05:33:34;;;;;;;;;;;13.80;99.90;;;;;;4998221;28;20547;-71
2022/05/24 05:36:02;;;;;;;1.25;0.63;;;13.70;99.90;;;;;;4997404;28;19932;-71
2022/05/24 05:38:31;;;;;;;0.30;0.30;;;13.70;99.90;;;;;;4996054;28;20434;-72
2022/05/24 05:40:59;;;;;;;1.40;0.30;;;13.60;99.90;;;;;;4997005;28;20022;-71
2022/05/24 05:43:27;;;;;;;0.20;0.15;;;13.60;99.90;;;;;;4997070;28;20026;-72
2022/05/24 05:45:56;;;;;;;0.20;0.20;;;13.60;99.90;;;;;;4997331;28;20109;-78
2022/05/24 05:48:24;;;;;;;1.17;0.30;;;13.60;99.90;;;;;;4997042;28;20096;-71
2022/05/24 05:50:52;;;;;;;0.50;0.43;;;13.60;99.90;;;;;;4996713;28;20407;-72
2022/05/24 05:53:21;;;;;;;0.20;0.20;;;13.60;99.90;;;;;;4996890;28;20478;-71
2022/05/24 05:55:48;;;;;;;0.52;0.30;;;13.60;99.90;;;;;;4996777;28;20088;-71
2022/05/24 05:58:16;;;;;;;1.23;0.35;;;13.60;99.90;;;;;;4996902;28;20023;-71
2022/05/24 06:00:47;;;;;;;1.17;0.40;;;13.60;99.90;;;;;;4996980;28;20033;-71
2022/05/24 06:03:15;;;;;;;0.30;0.30;;;13.60;99.90;;;;;;4996658;28;20054;-71
2022/05/24 06:05:45;;;;;;;1.58;0.38;;;13.60;99.90;;;;;;4996622;28;20057;-78
2022/05/24 06:08:13;;;;;;;1.65;0.50;;;13.60;99.90;;;;;;4996703;28;20463;-72
2022/05/24 06:10:41;;;;;;;0.93;0.55;;;13.60;99.90;;;;;;4996538;28;20037;-71
2022/05/24 06:13:09;;;;;;;0.35;0.35;;;13.60;99.90;;;;;;4996709;28;20019;-72
2022/05/24 06:15:37;;;;;;;2.20;0.77;;;13.50;99.90;;;;;;4996308;28;20022;-78
2022/05/24 06:18:05;;;;;;;0.80;0.40;;;13.50;99.90;;;;;;4996660;28;20062;-72
2022/05/24 06:20:34;;;;;;;1.63;0.47;;;13.60;99.90;;;;;;4996646;28;20029;-71
2022/05/24 06:23:02;;;;;;;1.52;0.55;;;13.60;99.90;;;;;;4996483;28;20031;-78
2022/05/24 06:25:31;;;;;;;1.35;0.50;;;13.50;99.90;;;;;;4996504;28;20019;-73
2022/05/24 06:27:59;;;;;;;1.67;0.50;;;13.50;99.90;;;;;;4996535;28;20014;-72
2022/05/24 06:30:28;;;;;;;0.82;0.50;;;13.50;99.90;;;;;;4996350;28;20034;-71
2022/05/24 06:32:57;;;;;;;0.60;0.50;;;13.50;99.90;;;;;;4996192;28;20109;-71
2022/05/24 06:35:25;;;;;;;2.28;0.60;;;13.50;99.90;;;;;;4995797;28;20069;-71
2022/05/24 06:37:54;;;;;;;1.73;0.50;;;13.60;99.90;;;;;;4996217;28;20037;-71
2022/05/24 06:40:22;;;;;;;0.75;0.40;;;13.60;99.90;;;;;;4996110;28;20360;-72
2022/05/24 06:42:53;;;;;;;3.90;0.90;;;13.60;99.90;;;;;;4996057;28;20030;-71
2022/05/24 06:45:20;;;;;;;0.60;0.40;;;13.60;99.90;;;;;;4995971;28;20407;-72
2022/05/24 06:47:48;;;;;;;1.02;0.55;;;13.60;99.90;;;;;;4995921;28;20121;-72
2022/05/24 06:50:16;;;;;;;0.73;0.50;;;13.60;99.90;;;;;;4995546;28;20590;-71
2022/05/24 06:52:45;;;;;;;1.65;0.95;;;13.60;99.90;;;;;;4995978;28;20460;-71
2022/05/24 06:55:13;;;;;;;2.05;0.63;;;13.60;99.90;;;;;;4995870;28;20423;-72
2022/05/24 06:57:41;;;;;;;1.02;0.60;;;13.60;99.90;;;;;;4995707;28;20092;-71
2022/05/24 07:03:08;;;;;;;0.93;0.60;;;13.60;99.90;;;;;;4996310;28;20049;-71
2022/05/24 07:05:37;;;;;;;1.23;0.70;;;13.50;99.90;;;;;;4995742;28;20407;-72
2022/05/24 07:08:08;;;;;;;1.05;0.63;;;13.50;99.90;;;;;;4995639;28;20027;-78
2022/05/24 07:10:37;;;;;;;0.52;0.47;;;13.50;99.90;;;;;;4995520;28;20487;-72
2022/05/24 07:13:18;;;;;;;0.55;0.55;;;13.50;99.90;;;;;;4995366;28;20045;-71
2022/05/24 07:15:46;;;;;;;1.92;0.70;;;13.50;99.90;;;;;;4995576;28;20022;-71
2022/05/24 07:18:14;;;;;;;2.30;1.45;;;13.50;99.90;;;;;;4995636;28;20026;-71
2022/05/24 07:20:42;;;;;;;3.50;1.98;;;13.50;99.90;;;;;;4995221;28;20026;-78
2022/05/24 07:23:17;;;;;;;5.68;2.88;;;13.40;99.90;;;;;;4995071;28;20045;-71
2022/05/24 07:25:46;;;;;;;2.90;2.40;;;13.40;99.90;;;;;;4995277;28;20021;-71
2022/05/24 07:28:19;;;;;;;4.10;2.70;;;13.40;99.90;;;;;;4995115;28;20022;-71
2022/05/24 07:30:49;;;;;;;4.25;2.75;;;13.40;99.90;;;;;;4995070;28;20380;-73
2022/05/24 07:33:16;;;;;;;3.13;1.90;;;13.30;99.90;;;;;;4994951;28;20018;-72
2022/05/24 07:35:44;;;;;;;3.15;1.42;;;13.30;99.90;;;;;;4994879;28;20483;-72
2022/05/24 07:38:13;;;;;;;2.38;1.40;;;13.20;99.90;;;;;;4994827;28;20026;-78
2022/05/24 07:46:14;;;;;;;2.53;1.25;;;13.10;99.90;;;;;;4994624;28;20037;-71
2022/05/24 07:48:43;;;;;;;1.77;1.10;;;13.10;99.90;;;;;;4994848;28;20113;-71
2022/05/24 07:51:13;;;;;;;1.95;0.98;;;13.10;99.90;;;;;;4994417;28;20049;-71
2022/05/24 07:53:41;;;;;;;1.08;0.73;;;13.10;99.90;;;;;;4994657;28;20077;-72
2022/05/24 07:56:09;;;;;;;2.00;1.13;;;13.00;99.90;;;;;;4994439;28;20026;-77
2022/05/24 07:58:37;;;;;;;3.38;0.82;;;13.00;99.90;;;;;;4994810;28;20026;-71
2022/05/24 08:01:04;;;;;;;2.28;1.00;;;13.00;99.90;;;;;;4994719;28;20471;-71
2022/05/24 08:03:32;;;;;;;1.60;1.13;;;13.00;99.90;;;;;;4994416;28;20575;-72
2022/05/24 08:06:00;;;;;;;2.63;0.98;;;13.00;99.90;;;;;;4994459;28;20041;-72
2022/05/24 08:08:28;;;;;;;2.17;0.95;;;13.00;99.90;;;;;;4994627;28;20030;-72
2022/05/24 08:10:56;;;;;;;4.00;1.05;;;12.90;99.90;;;;;;4994328;28;20031;-71
2022/05/24 08:13:23;;;;;;;2.00;1.58;;;12.90;99.90;;;;;;4994418;28;20105;-71
2022/05/24 08:15:56;;;;;;;3.10;1.10;;;12.90;99.90;;;;;;4994377;28;20121;-71
2022/05/24 08:18:24;;;;;;;3.05;1.13;;;12.90;99.90;;;;;;4993105;28;20035;-71
2022/05/24 08:20:54;;;;;;;1.30;0.95;;;12.90;99.90;;;;;;4994283;28;20026;-71
2022/05/24 08:23:23;;;;;;;1.67;1.20;;;12.80;99.90;;;;;;4994327;28;20074;-71
2022/05/24 08:25:52;;;;;;;2.15;1.17;;;12.80;99.90;;;;;;4994462;28;20093;-71
2022/05/24 08:28:20;;;;;;;2.17;1.45;;;12.80;99.90;;;;;;4994227;28;20486;-71
2022/05/24 08:30:50;;;;;;;3.63;0.90;;;12.80;99.90;;;;;;4994115;28;20037;-71
2022/05/24 08:33:18;;;;;;;1.90;1.10;;;12.80;99.90;;;;;;4994311;28;20026;-71
2022/05/24 08:35:46;;;;;;;1.92;1.15;;;12.70;99.90;;;;;;4994130;28;20054;-72
2022/05/24 08:38:14;;;;;;;0.93;0.65;;;12.70;99.90;;;;;;4994092;28;20387;-71
2022/05/24 08:40:47;;;;;;;0.85;0.60;;;12.70;99.90;;;;;;4994137;28;20483;-72
2022/05/24 08:43:51;;;;;;;0.73;0.52;;;12.60;99.90;;;;;;4994017;28;20026;-71
2022/05/24 08:49:18;;;;;;;0.65;0.25;;;12.60;99.90;;;;;;4994450;28;20026;-71
2022/05/24 08:52:00;;;;;;;1.67;0.63;;;12.50;99.90;;;;;;4993934;28;20415;-71
2022/05/24 08:54:44;;;;;;;2.22;0.35;;;12.50;99.90;;;;;;4993929;28;20026;-72
2022/05/24 08:57:15;;;;;;;1.23;0.55;;;12.50;99.90;;;;;;4995328;28;20034;-72
2022/05/24 08:59:56;;;;;;;1.42;0.52;;;12.50;99.90;;;;;;4993498;28;20076;-71
2022/05/24 09:02:23;;;;;;;2.70;0.73;;;12.40;99.90;;;;;;4978550;28;20026;-71
2022/05/24 09:04:51;;;;;;;0.90;0.50;;;12.40;99.90;;;;;;4977901;28;20023;-72
2022/05/24 09:07:35;;;;;;;4.97;0.70;;;12.40;99.90;;;;;;4978474;28;20022;-72
2022/05/24 09:10:06;;;;;;;1.10;0.63;;;12.40;99.90;;;;;;4978340;28;20369;-78
2022/05/24 09:12:53;;;;;;;3.25;2.20;;;12.30;99.90;;;;;;4978218;28;20030;-71
2022/05/24 09:15:50;;;;;;;5.47;3.78;;;12.30;99.90;;;;;;4981547;28;20039;-78
2022/05/24 09:18:31;;;;;;;8.07;5.15;;;12.40;99.90;;;;;;4995106;28;20038;-72
2022/05/24 09:20:59;;;;;;;8.57;4.30;;;12.40;99.90;;;;;;4994283;28;20022;-71
2022/05/24 09:23:51;;;;;;;7.05;4.40;;;12.50;99.90;;;;;;4995630;28;20014;-72
2022/05/24 09:26:24;;;;;;;5.95;4.68;;;12.50;99.90;;;;;;4994382;28;20026;-73
2022/05/24 09:29:08;;;;;;;4.90;3.13;;;12.60;99.90;;;;;;4996067;28;20027;-77
2022/05/24 09:31:48;;;;;;;3.28;2.13;;;12.60;99.90;;;;;;4997104;28;20113;-78
2022/05/24 09:34:27;;;;;;;2.97;1.90;;;12.60;99.90;;;;;;4996658;28;20034;-73
2022/05/24 09:37:09;;;;;;;3.03;2.20;;;12.60;99.90;;;;;;4986117;28;20180;-77
2022/05/24 09:39:44;;;;;;;2.47;2.10;;;12.60;99.90;;;;;;4985727;28;20038;-72
2022/05/24 09:42:22;;;;;;;4.07;1.90;;;12.60;99.90;;;;;;4986213;28;20023;-78
2022/05/24 09:44:57;;;;;;;2.33;1.98;;;12.60;99.90;;;;;;4985835;28;20023;-78
2022/05/24 09:47:58;;;;;;;2.90;2.40;;;12.50;99.90;;;;;;4975564;28;20031;-78
2022/05/24 09:50:33;;;;;;;4.57;2.47;;;12.50;99.90;;;;;;4975333;28;20121;-74
2022/05/24 09:53:08;;;;;;;3.35;2.50;;;12.50;99.90;;;;;;4976152;28;20019;-72
2022/05/24 09:55:59;;;;;;;2.30;1.70;;;12.50;99.90;;;;;;4976672;28;20063;-78
2022/05/24 09:58:34;;;;;;;3.20;2.22;;;12.50;99.90;;;;;;4976707;28;20114;-78
2022/05/24 10:01:10;;;;;;;2.65;1.50;;;12.50;99.90;;;;;;4976568;28;20035;-78
2022/05/24 10:03:38;;;;;;;;;;;12.50;99.90;;;;;;4981912;28;20399;-76
2022/05/24 10:06:25;;;;;;;1.80;1.48;;;12.40;99.90;;;;;;4983271;28;19910;-78
2022/05/24 10:08:59;;;;;;;3.58;1.45;;;12.40;99.90;;;;;;4975693;28;20019;-72
2022/05/24 10:11:38;;;;;;;1.27;0.90;;;12.40;99.90;;;;;;4976327;28;20026;-72
2022/05/24 10:14:23;;;;;;;2.35;1.05;;;12.40;99.90;;;;;;4976218;28;20057;-76
2022/05/24 10:16:52;;;;;;;2.35;1.20;;;12.40;99.90;;;;;;4975478;28;20045;-73
2022/05/24 10:19:50;;;;;;;3.05;1.13;;;12.40;99.90;;;;;;4976116;28;20019;-76
2022/05/24 10:22:33;;;;;;;6.43;1.08;;;12.40;99.90;;;;;;4975655;28;20387;-72
2022/05/24 10:25:29;;;;;;;3.50;1.05;;;12.50;99.90;;;;;;4975560;28;20442;-77
2022/05/24 10:28:21;;;;;;;1.67;1.00;;;12.60;99.90;;;;;;4975159;28;20047;-78
2022/05/24 10:30:56;;;;;;;1.45;0.90;;;12.60;99.90;;;;;;4975294;28;20022;-77
2022/05/24 10:39:46;;;;;;;6.53;1.58;;;12.60;99.90;;;;;;4975161;28;20026;-72
2022/05/24 10:42:16;;;;;;;1.70;0.65;;;12.60;99.90;;;;;;4974043;28;20023;-73
2022/05/24 10:44:50;;;;;;;6.15;0.60;;;12.60;99.90;;;;;;4990238;28;20037;-78
2022/05/24 10:47:49;;;;;;;1.27;0.45;;;12.60;99.90;;;;;;4975316;28;20027;-71
2022/05/24 10:50:37;;;;;;;0.88;0.80;;;12.70;99.90;;;;;;4966420;28;20067;-77
2022/05/24 10:53:13;;;;;;;0.88;0.40;;;12.60;99.90;;;;;;4974982;28;20062;-74
2022/05/24 10:55:57;;;;;;;0.93;0.65;;;12.60;99.90;;;;;;4975079;28;20030;-77
2022/05/24 10:58:25;;;;;;;0.50;0.50;;;12.60;99.90;;;;;;4975280;28;20023;-73
2022/05/24 11:01:14;;;;;;;2.10;0.60;;;12.60;99.90;;;;;;4974795;28;20015;-78
2022/05/24 11:03:49;;;;;;;2.03;0.65;;;12.60;99.90;;;;;;4974773;28;20070;-72
2022/05/24 11:06:32;;;;;;;0.93;0.55;;;12.60;99.90;;;;;;4975145;28;20495;-79
2022/05/24 11:09:18;;;;;;;0.55;0.50;;;12.60;99.90;;;;;;4974629;28;20019;-71
2022/05/24 11:12:08;;;;;;;1.23;0.30;;;12.60;99.90;;;;;;4974887;28;20026;-73
2022/05/24 11:14:49;;;;;;;0.75;0.57;;;12.60;99.90;;;;;;4974958;28;20109;-76
2022/05/24 11:17:18;;;;;;;1.25;0.52;;;12.60;99.90;;;;;;4977145;28;20035;-78
2022/05/24 11:19:52;;;;;;;0.68;0.30;;;12.60;99.90;;;;;;4986334;28;20053;-72
2022/05/24 11:22:41;;;;;;;1.27;0.20;;;12.60;99.90;;;;;;4987515;28;20033;-72
2022/05/24 11:25:26;;;;;;;0.60;0.30;;;12.50;99.90;;;;;;4992532;28;20513;-77
2022/05/24 11:28:03;;;;;;;0.65;0.25;;;12.50;99.90;;;;;;4992823;28;20487;-77
2022/05/24 11:30:41;;;;;;;1.42;0.43;;;12.50;99.90;;;;;;4993231;28;20101;-72
2022/05/24 11:33:36;;;;;;;0.38;0.20;;;12.50;99.90;;;;;;4992282;28;20032;-72
2022/05/24 11:36:31;;;;;;;0.52;0.28;;;12.50;99.90;;;;;;4990588;28;20069;-76
2022/05/24 11:39:14;;;;;;;0.40;0.30;;;12.40;99.90;;;;;;4993679;28;20105;-80
2022/05/24 11:41:42;;;;;;;0.20;0.20;;;12.30;99.90;;;;;;4992116;28;20057;-72
2022/05/24 11:44:34;;;;;;;1.13;0.93;;;12.30;99.90;;;;;;4982220;28;20105;-79
2022/05/24 11:47:01;;;;;;;1.48;0.95;;;12.20;99.90;;;;;;4989814;28;20019;-71
2022/05/24 11:49:29;;;;;;;1.95;1.00;;;12.20;99.90;;;;;;4976333;28;20022;-71
2022/05/24 11:51:58;;;;;;;2.05;0.80;;;12.10;99.90;;;;;;4983707;28;20022;-70
2022/05/24 11:54:25;;;;;;;3.05;1.00;;;12.00;99.90;;;;;;4982470;28;20030;-71
2022/05/24 11:57:01;;;;;;;1.67;0.90;;;12.00;99.90;;;;;;4975028;28;20070;-71
2022/05/24 11:59:40;;;;;;;2.38;1.15;;;12.00;99.90;;;;;;4975125;28;20384;-71
2022/05/24 12:02:24;;;;;;;3.67;1.95;;;12.00;99.90;;;;;;4975036;28;20494;-72
2022/05/24 12:08:37;;;;;;;1.30;1.00;;;11.90;99.90;;;;;;4975318;28;20125;-71
2022/05/24 12:11:07;;;;;;;2.53;0.98;;;11.90;99.90;;;;;;4987119;28;20026;-71
2022/05/24 12:13:54;;;;;;;1.42;0.90;;;11.90;99.90;;;;;;4993964;28;20026;-77
2022/05/24 12:16:37;;;;;;;0.63;0.60;;;11.80;99.90;;;;;;4994195;28;20089;-71
2022/05/24 12:19:06;;;;;;;0.95;0.60;;;11.90;99.90;;;;;;4994307;28;20434;-71
2022/05/24 12:21:52;;;;;;;1.63;1.10;;;11.90;99.90;;;;;;4994103;28;20030;-77
2022/05/24 12:24:37;;;;;;;1.30;1.10;;;11.90;99.90;;;;;;4994024;28;20026;-77
2022/05/24 12:27:22;;;;;;;2.50;1.27;;;11.80;99.90;;;;;;4994095;28;20034;-77
2022/05/24 12:30:20;;;;;;;2.83;1.48;;;11.80;99.90;;;;;;4993888;28;20080;-71
2022/05/24 12:32:48;;;;;;;2.05;1.85;;;11.80;99.90;;;;;;4993105;28;20045;-74
2022/05/24 12:35:18;;;;;;;6.35;1.85;;;11.80;99.90;;;;;;4993823;28;20037;-77
2022/05/24 12:37:55;;;;;;;3.80;2.22;;;11.80;99.90;;;;;;4993888;28;20030;-77
2022/05/24 12:40:32;;;;;;;3.58;2.30;;;11.90;99.90;;;;;;4994055;28;20049;-77
2022/05/24 12:43:07;;;;;;;4.60;2.30;;;11.90;99.90;;;;;;4993049;28;20037;-78
2022/05/24 12:45:41;;;;;;;5.13;2.63;;;11.90;99.90;;;;;;4993998;28;20387;-77
2022/05/24 12:48:23;;;;;;;3.60;2.00;;;11.90;99.90;;;;;;4994069;28;20030;-77
2022/05/24 12:50:58;;;;;;;3.17;1.73;;;11.90;99.90;;;;;;4993887;28;20043;-78
2022/05/24 12:53:26;;;;;;;4.13;2.33;;;11.90;99.90;;;;;;4994062;28;20026;-78
2022/05/24 12:56:02;;;;;;;4.75;2.88;;;11.90;99.90;;;;;;4993914;28;20031;-76
2022/05/24 12:58:34;;;;;;;9.13;2.90;;;11.80;99.90;;;;;;4993899;28;20039;-77
2022/05/24 13:01:15;;;;;;;3.58;2.80;;;11.80;99.90;;;;;;4993887;28;20487;-78
2022/05/24 13:03:47;;;;;;;3.50;2.30;;;11.80;99.90;;;;;;4993856;28;20033;-78
2022/05/24 13:06:26;;;;;;;5.38;2.10;;;11.80;99.90;;;;;;4993944;28;20064;-71
2022/05/24 13:09:15;;;;;;;4.18;2.65;;;11.80;99.90;;;;;;4993830;28;20038;-78
2022/05/24 13:11:44;;;;;;;2.97;2.30;;;11.80;99.90;;;;;;4993738;28;20030;-78
2022/05/24 13:14:30;;;;;;;4.03;2.60;;;11.80;99.90;;;;;;4993895;28;20027;-78
2022/05/24 13:16:58;;;;;;;5.60;3.00;;;11.80;99.90;;;;;;4993879;28;20578;-74
2022/05/24 13:19:25;;;;;;;4.90;3.45;;;11.80;99.90;;;;;;4988005;28;20027;-75
2022/05/24 13:21:56;;;;;;;5.82;3.65;;;11.80;99.90;;;;;;4974379;28;20380;-77
2022/05/24 13:24:23;;;;;;;6.60;4.68;;;11.80;99.90;;;;;;4972976;28;20047;-77
2022/05/24 13:27:06;;;;;;;6.40;4.55;;;11.80;99.90;;;;;;4974352;28;20033;-77
2022/05/24 13:33:33;;;;;;;8.05;2.95;;;11.80;99.90;;;;;;4974241;28;20081;-76
2022/05/24 13:35:05;;;;;;;9.10;4.10;;;11.90;99.90;;;;;;4974843;28;20578;-77
2022/05/24 13:37:54;;;;;;;5.30;3.70;;;11.90;99.90;;;;;;4974283;28;20038;-77
2022/05/24 13:40:37;;;;;;;9.05;4.40;;;11.90;99.90;;;;;;4974575;28;20444;-77
2022/05/24 13:43:04;;;;;;;7.07;4.38;;;11.90;99.90;;;;;;4972900;28;20487;-78
2022/05/24 13:45:34;;;;;;;5.97;4.10;;;11.90;99.90;;;;;;4977598;28;20030;-77
2022/05/24 13:48:22;;;;;;;5.78;4.70;;;11.90;99.90;;;;;;4977825;28;20444;-77
2022/05/24 13:50:49;;;;;;;6.07;4.43;;;11.80;99.90;;;;;;4977433;28;20133;-77
2022/05/24 13:53:31;;;;;;;5.85;4.63;;;11.90;99.90;;;;;;4977636;28;20081;-78
2022/05/24 13:56:07;;;;;;;6.72;4.78;;;11.90;99.90;;;;;;4977478;28;20070;-77
2022/05/24 13:58:46;;;;;;;12.05;4.75;;;11.80;99.90;;;;;;4977761;28;20115;-79
2022/05/24 14:01:31;;;;;;;9.55;5.05;;;11.90;99.90;;;;;;4977405;28;20023;-78